Etusivu
METAR-TAF:

METAR-TAF

Lentoasemat :

Edson, Alberta, Kanada

Leveyspiiri: 53-35N, Pituuspiiri: 116-28W, korkeus merenpinnasta: 921 m

Tämänhetkinen sää

Tämä raportti tehtiin 5 tuntia ja 39 minuuttia sitten, kello 22.50 UTC
Tuuli 6 kn koillisesta
Lämpötila 1°C
Kosteus 93%
Ilmanpaine 1023 hPa
Näkyvyys: 14.5 km
Hajanaisia pilviä 900 ft:n korkeudessa
Pilvistä 2100 ft:n korkeudessa
heikkoa lumisadetta

METAR: CYET 202250Z AUTO 05006KT 9SM -SN SCT009 OVC021 01/00 A3022 RMK SLP267

Aika: 22:29 (04:29 UTC)


TAF: puuttuu

Säähavainnot ja -ennusteet yli 4000 lentoasemalta (METAR- ja TAF-raportit).

Käytössä olevat sääasemat on merkitty karttaan keltaisilla ja punaisilla pisteillä.

Aseta hiiri pisteen päälle nähdäksesi sääaseman nimen.

Klikkaa sitten nähdäksesi säähavainnot ja -ennusteet.

Kartan vaihtaminen: klikkaa mustalla rastilla varustettuja vihreitä pisteitä, niin voit zoomata sisään; viivalla varustettua vihreää pistettä, niin voit zoomata ulos tai vihreitä nuolia, niin pääset viereisille kartoille.


METAR-TAF: